Sacramento, California
Traffic Map
Current Weather Conditions
Sacramento, California
Clear Haze
Clear

Feels Like: 6°
Wind Chill: Ceiling: Unl
Heat Index: Visibility: 5mi
Dew Point: Wind: 0mph
Humidity: 89% Direction: ° ()
Pressure: 30.1in Gusts: 0mph
Raw Report DataKSAC 261153Z AUTO 00000KT 5SM BR CLR 06/04 A3010 RMK AO2 SLP191 T00560039 10083 20044 50002
Traffic Incident Summary
Active as of:
Severity:
Category:
InformationThere was an issue retrieving the traffic information for this location. Please try a different location or try again shortly.
Advertisements
Track Severe Weather on mobile